createdAt,value
2022-08-31T00:02:59.349Z,17.41
2022-08-31T00:06:07.784Z,17.52
2022-08-31T00:09:15.420Z,17.37
2022-08-31T00:12:21.908Z,17.15
2022-08-31T00:15:31.204Z,17.50
2022-08-31T00:18:37.567Z,17.50
2022-08-31T00:21:44.916Z,17.45
2022-08-31T00:24:52.995Z,17.46
2022-08-31T00:27:59.465Z,17.44
2022-08-31T00:31:05.929Z,16.98
2022-08-31T00:34:12.639Z,17.74
2022-08-31T00:37:19.106Z,17.48
2022-08-31T00:40:27.483Z,17.78
2022-08-31T00:43:39.931Z,17.74
2022-08-31T00:46:46.671Z,17.49
2022-08-31T00:49:54.137Z,17.36
2022-08-31T00:53:02.487Z,17.27
2022-08-31T00:56:10.786Z,17.48
2022-08-31T00:59:19.564Z,17.22
2022-08-31T01:02:26.282Z,16.92
2022-08-31T01:05:33.758Z,17.12
2022-08-31T01:08:40.175Z,17.00
2022-08-31T01:11:47.903Z,16.73
2022-08-31T01:14:54.255Z,16.64
2022-08-31T01:18:04.020Z,16.95
2022-08-31T01:21:24.227Z,16.71
2022-08-31T01:24:34.226Z,17.05
2022-08-31T01:27:41.194Z,16.98
2022-08-31T01:31:00.867Z,17.13
2022-08-31T01:34:07.360Z,17.25
2022-08-31T01:37:14.093Z,17.31
2022-08-31T01:40:26.428Z,16.96
2022-08-31T01:43:34.835Z,16.72
2022-08-31T01:46:41.570Z,16.89
2022-08-31T01:49:48.335Z,17.03
2022-08-31T01:52:54.779Z,17.19
2022-08-31T01:56:02.856Z,17.28
2022-08-31T01:59:13.001Z,16.80
2022-08-31T02:02:19.241Z,16.90
2022-08-31T02:05:25.593Z,16.87
2022-08-31T02:08:31.756Z,16.99
2022-08-31T02:11:40.087Z,17.32
2022-08-31T02:14:46.955Z,17.17
2022-08-31T02:17:53.466Z,17.26
2022-08-31T02:21:00.006Z,16.93
2022-08-31T02:24:07.077Z,17.40
2022-08-31T02:27:14.881Z,17.36
2022-08-31T02:30:21.351Z,17.35
2022-08-31T02:33:27.779Z,17.34
2022-08-31T02:36:35.980Z,17.49
2022-08-31T02:39:42.839Z,17.31
2022-08-31T02:42:52.988Z,17.53
2022-08-31T02:46:00.426Z,17.60
2022-08-31T02:49:06.746Z,17.40
2022-08-31T02:52:12.993Z,17.58
2022-08-31T02:55:19.257Z,17.41
2022-08-31T02:58:31.027Z,17.21
2022-08-31T03:01:37.893Z,17.44
2022-08-31T03:04:44.387Z,17.14
2022-08-31T03:07:51.416Z,17.07
2022-08-31T03:10:57.854Z,17.32
2022-08-31T03:14:05.563Z,17.50
2022-08-31T03:17:11.567Z,17.28
2022-08-31T03:20:20.175Z,17.40
2022-08-31T03:23:26.666Z,17.50
2022-08-31T03:26:32.676Z,17.37
2022-08-31T03:29:41.933Z,17.17
2022-08-31T03:32:48.488Z,17.18
2022-08-31T03:35:54.902Z,16.84
2022-08-31T03:39:01.189Z,17.30
2022-08-31T03:42:07.853Z,17.00
2022-08-31T03:45:15.832Z,17.03
2022-08-31T03:48:22.035Z,17.19
2022-08-31T03:51:28.700Z,17.21
2022-08-31T03:54:35.730Z,17.26
2022-08-31T03:57:42.141Z,17.21
2022-08-31T04:00:49.838Z,16.96
2022-08-31T04:03:56.107Z,16.71
2022-08-31T04:07:02.539Z,16.87
2022-08-31T04:10:09.556Z,16.99
2022-08-31T04:13:15.936Z,16.90
2022-08-31T04:16:24.905Z,16.93
2022-08-31T04:19:31.631Z,17.02
2022-08-31T04:22:38.027Z,17.11
2022-08-31T04:25:44.506Z,17.32
2022-08-31T04:28:50.811Z,17.19
2022-08-31T04:31:58.670Z,17.26
2022-08-31T04:35:05.417Z,17.21
2022-08-31T04:38:12.464Z,17.28
2022-08-31T04:41:21.500Z,17.24
2022-08-31T04:44:28.807Z,17.48
2022-08-31T04:47:36.542Z,17.43
2022-08-31T04:50:43.333Z,17.68
2022-08-31T04:53:50.223Z,17.83
2022-08-31T04:56:59.481Z,17.83
2022-08-31T05:00:07.307Z,17.55
2022-08-31T05:03:15.243Z,17.58
2022-08-31T05:06:23.811Z,17.94
2022-08-31T05:09:32.557Z,18.25
2022-08-31T05:12:38.846Z,18.18
2022-08-31T05:15:46.006Z,18.08
2022-08-31T05:18:54.843Z,18.40
2022-08-31T05:22:01.441Z,18.03
2022-08-31T05:25:09.481Z,18.56
2022-08-31T05:28:16.859Z,18.80
2022-08-31T05:31:23.522Z,18.93
2022-08-31T05:34:31.683Z,18.93
2022-08-31T05:37:38.383Z,18.38
2022-08-31T05:40:44.974Z,18.90
2022-08-31T05:43:51.420Z,18.88
2022-08-31T05:47:03.925Z,18.95
2022-08-31T05:50:12.900Z,19.00
2022-08-31T05:53:19.791Z,18.93
2022-08-31T05:56:26.583Z,18.68
2022-08-31T05:59:33.358Z,18.58
2022-08-31T06:02:40.230Z,18.63
2022-08-31T06:05:50.712Z,18.61
2022-08-31T06:08:58.091Z,18.38
2022-08-31T06:12:05.803Z,19.32
2022-08-31T06:15:13.339Z,19.63
2022-08-31T06:18:21.076Z,19.78
2022-08-31T06:21:32.217Z,19.85
2022-08-31T06:24:38.330Z,20.09
2022-08-31T06:27:47.771Z,20.03
2022-08-31T06:30:55.689Z,20.50
2022-08-31T06:34:03.334Z,20.67
2022-08-31T06:37:18.616Z,20.61
2022-08-31T06:59:01.354Z,20.72
2022-08-31T07:02:08.925Z,20.85
2022-08-31T07:05:20.014Z,21.36
2022-08-31T07:08:30.623Z,21.39
2022-08-31T07:11:42.278Z,21.45
2022-08-31T07:14:54.657Z,20.99
2022-08-31T07:18:02.066Z,20.95
2022-08-31T07:21:10.908Z,20.27
2022-08-31T07:24:19.356Z,20.16
2022-08-31T07:27:25.795Z,20.35
2022-08-31T07:30:39.255Z,21.25
2022-08-31T07:33:45.692Z,21.55
2022-08-31T07:37:09.251Z,21.86
2022-08-31T07:40:33.447Z,21.55
2022-08-31T07:43:39.807Z,21.97
2022-08-31T07:46:49.390Z,22.04
2022-08-31T07:49:58.591Z,22.68
2022-08-31T07:53:08.638Z,22.82
2022-08-31T07:56:17.795Z,22.91
2022-08-31T07:59:24.835Z,23.04
2022-08-31T08:02:38.442Z,22.38
2022-08-31T08:05:44.711Z,22.61
2022-08-31T08:09:21.566Z,23.25
2022-08-31T08:12:22.398Z,22.38
2022-08-31T08:15:29.107Z,22.85
2022-08-31T08:18:36.731Z,22.64
2022-08-31T08:21:43.695Z,22.96
2022-08-31T08:24:50.955Z,23.51
2022-08-31T08:27:57.392Z,23.62
2022-08-31T08:31:04.839Z,23.17
2022-08-31T08:34:13.506Z,23.44
2022-08-31T08:37:31.098Z,23.94
2022-08-31T08:40:47.670Z,23.34
2022-08-31T08:43:57.460Z,23.73
2022-08-31T08:47:07.354Z,24.65
2022-08-31T08:50:19.033Z,24.32
2022-08-31T08:53:30.193Z,23.02
2022-08-31T08:56:49.118Z,23.98
2022-08-31T08:59:59.287Z,23.86
2022-08-31T09:03:07.898Z,24.12
2022-08-31T09:06:27.302Z,23.87
2022-08-31T09:09:43.488Z,24.20
2022-08-31T09:12:59.332Z,24.48
2022-08-31T09:16:17.794Z,24.41
2022-08-31T09:19:24.541Z,24.71
2022-08-31T09:22:35.028Z,24.56
2022-08-31T09:25:52.627Z,24.24
2022-08-31T09:29:00.319Z,24.65
2022-08-31T09:32:10.093Z,24.12
2022-08-31T09:35:28.607Z,25.30
2022-08-31T09:38:39.635Z,25.06
2022-08-31T09:41:47.491Z,25.16
2022-08-31T09:44:59.167Z,25.41
2022-08-31T09:48:07.628Z,25.16
2022-08-31T09:51:24.500Z,25.11
2022-08-31T09:54:49.354Z,25.36
2022-08-31T09:57:59.291Z,25.53
2022-08-31T10:01:13.530Z,25.58
2022-08-31T10:04:26.973Z,25.61
2022-08-31T10:07:44.459Z,26.34
2022-08-31T10:10:53.107Z,26.24
2022-08-31T10:14:07.783Z,26.59
2022-08-31T10:17:23.964Z,26.43
2022-08-31T10:20:36.078Z,25.32
2022-08-31T10:23:54.655Z,27.10
2022-08-31T10:27:10.361Z,26.96
2022-08-31T10:30:41.846Z,27.68
2022-08-31T10:34:13.786Z,26.31
2022-08-31T10:37:25.338Z,25.46
2022-08-31T10:40:36.234Z,26.09
2022-08-31T10:43:50.355Z,26.02
2022-08-31T10:47:05.828Z,25.43
2022-08-31T10:50:17.568Z,25.78
2022-08-31T10:53:40.350Z,25.79
2022-08-31T10:56:59.366Z,25.79
2022-08-31T11:00:33.456Z,26.28
2022-08-31T11:03:54.730Z,25.54
2022-08-31T11:07:12.341Z,27.01
2022-08-31T11:10:26.607Z,27.74
2022-08-31T11:13:57.211Z,27.59
2022-08-31T11:17:35.376Z,27.68
2022-08-31T11:21:01.205Z,27.09
2022-08-31T11:24:28.430Z,27.59
2022-08-31T11:27:37.128Z,27.80
2022-08-31T11:30:50.150Z,26.49
2022-08-31T11:34:16.016Z,26.26
2022-08-31T11:37:58.010Z,26.62
2022-08-31T11:41:05.764Z,26.77
2022-08-31T11:44:51.353Z,25.83
2022-08-31T11:47:57.668Z,26.00
2022-08-31T11:51:08.136Z,26.10
2022-08-31T11:54:42.059Z,26.27
2022-08-31T11:58:23.344Z,26.08
2022-08-31T12:01:35.356Z,26.36
2022-08-31T12:05:02.807Z,26.99
2022-08-31T12:08:15.489Z,27.47
2022-08-31T12:11:36.645Z,27.65
2022-08-31T12:14:51.248Z,26.02
2022-08-31T12:18:24.642Z,26.36
2022-08-31T12:22:00.730Z,25.86
2022-08-31T12:25:20.442Z,25.70
2022-08-31T12:28:35.734Z,25.10
2022-08-31T12:31:43.487Z,25.14
2022-08-31T12:34:57.883Z,25.59
2022-08-31T12:38:06.687Z,25.08
2022-08-31T12:41:15.719Z,24.90
2022-08-31T12:44:24.022Z,24.86
2022-08-31T12:47:38.015Z,24.56
2022-08-31T12:50:50.125Z,24.23
2022-08-31T12:54:14.752Z,23.90
2022-08-31T12:57:37.213Z,23.49
2022-08-31T13:00:44.186Z,23.91
2022-08-31T13:03:54.523Z,23.87
2022-08-31T13:07:14.638Z,23.92
2022-08-31T13:10:29.859Z,23.75
2022-08-31T13:13:39.113Z,23.14
2022-08-31T13:16:47.388Z,23.25
2022-08-31T13:19:56.536Z,23.64
2022-08-31T13:23:03.845Z,23.65
2022-08-31T13:26:20.042Z,23.54
2022-08-31T13:29:27.923Z,23.99
2022-08-31T13:32:35.523Z,23.93
2022-08-31T13:35:45.027Z,23.75
2022-08-31T13:38:53.943Z,23.92
2022-08-31T13:42:08.171Z,23.67
2022-08-31T13:45:29.331Z,23.66
2022-08-31T13:48:38.509Z,23.45
2022-08-31T13:51:48.101Z,23.17
2022-08-31T13:55:00.643Z,23.41
2022-08-31T13:58:08.791Z,22.90
2022-08-31T14:01:26.899Z,23.20
2022-08-31T14:05:00.523Z,23.29
2022-08-31T14:08:09.576Z,22.96
2022-08-31T14:11:17.924Z,22.34
2022-08-31T14:14:39.945Z,22.16
2022-08-31T14:21:23.464Z,21.91
2022-08-31T14:24:32.509Z,22.00
2022-08-31T14:27:43.263Z,22.01
2022-08-31T14:30:49.404Z,21.88
2022-08-31T14:34:09.411Z,21.81
2022-08-31T14:37:20.044Z,21.55
2022-08-31T14:40:27.118Z,21.51
2022-08-31T14:43:33.539Z,21.64
2022-08-31T14:46:41.549Z,21.76
2022-08-31T14:49:49.592Z,21.67
2022-08-31T14:52:57.704Z,21.20
2022-08-31T14:56:05.048Z,21.35
2022-08-31T14:59:12.609Z,21.00
2022-08-31T15:02:21.703Z,20.56
2022-08-31T15:05:30.246Z,20.75
2022-08-31T15:08:37.990Z,21.03
2022-08-31T15:11:46.136Z,20.85
2022-08-31T15:15:00.081Z,20.94
2022-08-31T15:18:06.664Z,20.95
2022-08-31T15:21:14.649Z,20.54
2022-08-31T15:24:23.177Z,20.19
2022-08-31T15:27:31.863Z,20.42
2022-08-31T15:30:40.866Z,20.42
2022-08-31T15:33:49.474Z,20.00
2022-08-31T15:37:01.165Z,20.09
2022-08-31T15:40:10.271Z,20.13
2022-08-31T15:43:18.191Z,20.00
2022-08-31T15:46:44.558Z,19.87
2022-08-31T15:49:51.288Z,19.54
2022-08-31T15:53:05.162Z,19.45
2022-08-31T15:56:15.110Z,19.84
2022-08-31T15:59:22.982Z,19.72
2022-08-31T16:02:33.506Z,19.78
2022-08-31T16:05:40.088Z,19.65
2022-08-31T16:08:48.172Z,19.64
2022-08-31T16:11:54.837Z,19.46
2022-08-31T16:15:00.996Z,19.41
2022-08-31T16:18:08.127Z,19.43
2022-08-31T16:21:14.788Z,19.34
2022-08-31T16:24:25.175Z,19.51
2022-08-31T16:27:31.319Z,19.54
2022-08-31T16:30:37.626Z,19.46
2022-08-31T16:33:44.764Z,19.38
2022-08-31T16:36:52.407Z,19.46
2022-08-31T16:40:00.521Z,19.43
2022-08-31T16:43:06.907Z,19.51
2022-08-31T16:46:37.311Z,19.53
2022-08-31T16:49:41.407Z,19.41
2022-08-31T16:52:51.150Z,19.46
2022-08-31T16:56:00.176Z,19.40
2022-08-31T16:59:07.296Z,19.33
2022-08-31T17:02:15.727Z,19.34
2022-08-31T17:05:21.879Z,18.94
2022-08-31T17:08:30.087Z,18.79
2022-08-31T17:11:40.666Z,18.72
2022-08-31T17:14:52.603Z,18.83
2022-08-31T17:17:59.161Z,18.72
2022-08-31T17:21:05.671Z,18.93
2022-08-31T17:24:16.130Z,18.72
2022-08-31T17:27:23.679Z,18.58
2022-08-31T17:30:29.823Z,18.57
2022-08-31T17:33:36.256Z,18.31
2022-08-31T17:36:43.462Z,18.40
2022-08-31T17:39:50.762Z,18.32
2022-08-31T17:43:00.065Z,17.99
2022-08-31T17:46:09.191Z,18.06
2022-08-31T17:49:16.200Z,18.03
2022-08-31T17:52:23.775Z,17.99
2022-08-31T17:55:31.265Z,17.76
2022-08-31T17:58:38.862Z,17.99
2022-08-31T18:01:47.036Z,17.87
2022-08-31T18:04:53.817Z,17.75
2022-08-31T18:08:00.233Z,17.61
2022-08-31T18:11:07.722Z,17.58
2022-08-31T18:14:16.347Z,17.49
2022-08-31T18:17:23.145Z,17.67
2022-08-31T18:20:29.623Z,17.32
2022-08-31T18:23:38.053Z,17.41
2022-08-31T18:26:47.372Z,17.38
2022-08-31T18:29:56.468Z,17.63
2022-08-31T18:33:04.076Z,17.54
2022-08-31T18:36:12.011Z,17.15
2022-08-31T18:39:47.555Z,17.04
2022-08-31T18:43:06.279Z,17.36
2022-08-31T18:46:14.115Z,17.30
2022-08-31T18:49:22.384Z,17.16
2022-08-31T18:52:29.254Z,17.04
2022-08-31T18:55:35.627Z,16.95
2022-08-31T18:58:41.776Z,17.06
2022-08-31T19:01:49.429Z,16.79
2022-08-31T19:04:56.092Z,16.82
2022-08-31T19:08:02.679Z,16.79
2022-08-31T19:11:09.762Z,16.91
2022-08-31T19:14:16.840Z,16.91
2022-08-31T19:17:24.842Z,16.53
2022-08-31T19:20:31.375Z,16.80
2022-08-31T19:23:37.948Z,16.71
2022-08-31T19:26:48.360Z,16.89
2022-08-31T19:29:56.486Z,16.73
2022-08-31T19:33:07.633Z,16.63
2022-08-31T19:36:14.299Z,16.60
2022-08-31T19:39:22.990Z,16.36
2022-08-31T19:45:56.548Z,16.32
2022-08-31T19:49:18.301Z,16.48
2022-08-31T19:52:25.882Z,16.41
2022-08-31T19:55:32.402Z,16.46
2022-08-31T19:58:40.042Z,16.39
2022-08-31T20:01:48.355Z,16.55
2022-08-31T20:04:56.360Z,16.45
2022-08-31T20:08:02.951Z,16.43
2022-08-31T20:11:11.010Z,16.34
2022-08-31T20:14:19.358Z,16.38
2022-08-31T20:17:25.483Z,16.46
2022-08-31T20:20:36.254Z,16.54
2022-08-31T20:23:42.645Z,16.48
2022-08-31T20:26:51.945Z,16.18
2022-08-31T20:29:58.094Z,15.50
2022-08-31T20:33:04.296Z,15.89
2022-08-31T20:36:19.034Z,15.72
2022-08-31T20:39:27.431Z,16.18
2022-08-31T20:42:33.992Z,16.44
2022-08-31T20:45:41.041Z,16.35
2022-08-31T20:49:04.580Z,16.34
2022-08-31T20:52:14.847Z,16.37
2022-08-31T20:55:22.679Z,16.49
2022-08-31T20:58:33.055Z,16.45
2022-08-31T21:01:39.536Z,16.41
2022-08-31T21:04:46.486Z,16.51
2022-08-31T21:07:57.895Z,16.41
2022-08-31T21:11:12.635Z,16.60
2022-08-31T21:14:20.839Z,16.75
2022-08-31T21:17:27.377Z,16.81
2022-08-31T21:20:35.639Z,16.52
2022-08-31T21:23:43.634Z,16.46
2022-08-31T21:26:50.475Z,16.33
2022-08-31T21:29:57.206Z,16.40
2022-08-31T21:33:03.254Z,16.58
2022-08-31T21:36:12.229Z,16.07
2022-08-31T21:39:21.867Z,16.22
2022-08-31T21:42:28.220Z,16.28
2022-08-31T21:45:34.598Z,16.56
2022-08-31T21:48:43.067Z,16.63
2022-08-31T21:51:51.689Z,16.57
2022-08-31T21:54:59.376Z,16.55
2022-08-31T21:58:05.578Z,16.61
2022-08-31T22:01:13.497Z,16.23
2022-08-31T22:04:21.241Z,15.96
2022-08-31T22:07:27.358Z,15.98
2022-08-31T22:10:39.389Z,16.26
2022-08-31T22:13:48.089Z,16.33
2022-08-31T22:16:56.357Z,16.26
2022-08-31T22:20:03.069Z,16.25
2022-08-31T22:33:17.262Z,16.18
2022-08-31T22:36:31.433Z,15.96
2022-08-31T22:39:42.553Z,16.14
2022-08-31T22:42:50.296Z,15.96
2022-08-31T22:45:56.478Z,16.05
2022-08-31T22:49:04.454Z,16.01
2022-08-31T22:52:14.112Z,16.00
2022-08-31T22:55:23.240Z,15.93
2022-08-31T22:58:29.664Z,15.80
2022-08-31T23:01:38.693Z,15.99
2022-08-31T23:04:46.633Z,15.87
2022-08-31T23:07:53.386Z,15.88
2022-08-31T23:10:59.615Z,15.68
2022-08-31T23:14:08.685Z,15.70
2022-08-31T23:17:17.327Z,15.66
2022-08-31T23:20:27.322Z,15.44
2022-08-31T23:23:33.582Z,15.72
2022-08-31T23:26:40.850Z,15.56
2022-08-31T23:29:49.927Z,15.14
2022-08-31T23:32:58.772Z,15.47
2022-08-31T23:36:08.270Z,15.30
2022-08-31T23:39:15.573Z,15.01
2022-08-31T23:42:23.010Z,15.14
2022-08-31T23:45:29.308Z,15.31
2022-08-31T23:48:35.554Z,15.75
2022-08-31T23:51:43.232Z,15.47
2022-08-31T23:54:52.297Z,15.59
2022-08-31T23:57:59.461Z,15.55
